createdAt,value
2023-05-04T00:02:18.282Z,4.71
2023-05-04T00:04:45.283Z,4.67
2023-05-04T00:07:12.148Z,4.63
2023-05-04T00:09:39.041Z,4.61
2023-05-04T00:12:06.676Z,4.59
2023-05-04T00:14:33.358Z,4.55
2023-05-04T00:17:00.079Z,4.50
2023-05-04T00:19:26.862Z,4.47
2023-05-04T00:21:53.526Z,4.46
2023-05-04T00:24:20.215Z,4.41
2023-05-04T00:26:46.859Z,4.42
2023-05-04T00:29:13.536Z,4.38
2023-05-04T00:31:40.206Z,4.36
2023-05-04T00:34:07.293Z,4.35
2023-05-04T00:36:34.235Z,4.28
2023-05-04T00:39:00.901Z,4.32
2023-05-04T00:41:27.606Z,4.30
2023-05-04T00:43:54.285Z,4.29
2023-05-04T00:46:20.930Z,4.27
2023-05-04T00:48:50.060Z,4.27
2023-05-04T00:51:19.172Z,4.26
2023-05-04T00:53:46.027Z,4.23
2023-05-04T00:56:13.616Z,4.22
2023-05-04T00:58:40.271Z,4.20
2023-05-04T01:01:07.258Z,4.16
2023-05-04T01:03:34.139Z,4.14
2023-05-04T01:06:16.155Z,4.16
2023-05-04T01:08:54.709Z,4.15
2023-05-04T01:11:27.630Z,4.13
2023-05-04T01:13:56.412Z,4.10
2023-05-04T01:16:23.286Z,4.10
2023-05-04T01:18:49.992Z,4.08
2023-05-04T01:21:16.644Z,4.06
2023-05-04T01:23:43.357Z,4.03
2023-05-04T01:26:22.885Z,4.03
2023-05-04T01:28:53.900Z,4.03
2023-05-04T01:31:23.294Z,4.01
2023-05-04T01:33:52.937Z,4.01
2023-05-04T01:36:23.035Z,4.00
2023-05-04T01:38:53.294Z,3.98
2023-05-04T01:41:19.956Z,3.96
2023-05-04T01:43:46.813Z,3.93
2023-05-04T01:46:13.680Z,3.96
2023-05-04T01:48:40.663Z,3.93
2023-05-04T01:51:07.316Z,3.95
2023-05-04T01:53:33.992Z,3.91
2023-05-04T01:56:01.183Z,3.93
2023-05-04T01:58:27.881Z,3.91
2023-05-04T02:00:54.693Z,3.87
2023-05-04T02:03:21.516Z,3.85
2023-05-04T02:05:48.256Z,3.83
2023-05-04T02:08:14.916Z,3.82
2023-05-04T02:10:41.620Z,3.80
2023-05-04T02:13:08.368Z,3.75
2023-05-04T02:15:35.061Z,3.72
2023-05-04T02:18:01.953Z,3.68
2023-05-04T02:20:28.635Z,3.58
2023-05-04T02:22:55.275Z,3.62
2023-05-04T02:25:23.269Z,3.58
2023-05-04T02:27:49.945Z,3.62
2023-05-04T02:30:16.678Z,3.62
2023-05-04T02:32:43.384Z,3.57
2023-05-04T02:35:10.228Z,3.61
2023-05-04T02:37:36.905Z,3.58
2023-05-04T02:40:04.482Z,3.63
2023-05-04T02:42:31.795Z,3.62
2023-05-04T02:44:58.459Z,3.62
2023-05-04T02:47:25.156Z,3.60
2023-05-04T02:49:51.841Z,3.60
2023-05-04T02:52:18.543Z,3.60
2023-05-04T02:54:45.937Z,3.57
2023-05-04T02:57:12.654Z,3.58
2023-05-04T02:59:39.308Z,3.59
2023-05-04T03:02:06.067Z,3.56
2023-05-04T03:04:32.777Z,3.55
2023-05-04T03:06:59.433Z,3.58
2023-05-04T03:09:26.123Z,3.57
2023-05-04T03:11:52.791Z,3.54
2023-05-04T03:14:19.452Z,3.54
2023-05-04T03:16:46.186Z,3.52
2023-05-04T03:19:12.878Z,3.50
2023-05-04T03:21:39.643Z,3.42
2023-05-04T03:24:06.642Z,3.46
2023-05-04T03:26:33.291Z,3.49
2023-05-04T03:28:59.999Z,3.48
2023-05-04T03:31:27.017Z,3.47
2023-05-04T03:33:53.718Z,3.47
2023-05-04T03:36:20.494Z,3.48
2023-05-04T03:38:47.178Z,3.49
2023-05-04T03:41:13.897Z,3.50
2023-05-04T03:43:40.575Z,3.51
2023-05-04T03:46:07.333Z,3.51
2023-05-04T03:48:34.143Z,3.50
2023-05-04T03:51:00.879Z,3.53
2023-05-04T03:53:27.595Z,3.53
2023-05-04T03:55:54.252Z,3.55
2023-05-04T03:58:21.054Z,3.52
2023-05-04T04:00:47.758Z,3.55
2023-05-04T04:03:15.126Z,3.58
2023-05-04T04:05:41.994Z,3.61
2023-05-04T04:08:08.697Z,3.64
2023-05-04T04:10:35.621Z,3.64
2023-05-04T04:13:02.459Z,3.70
2023-05-04T04:15:29.150Z,3.73
2023-05-04T04:17:55.936Z,3.81
2023-05-04T04:20:22.793Z,3.84
2023-05-04T04:22:49.852Z,3.91
2023-05-04T04:25:16.564Z,3.96
2023-05-04T04:27:43.223Z,3.86
2023-05-04T04:30:10.742Z,4.09
2023-05-04T04:32:37.593Z,4.16
2023-05-04T04:35:04.788Z,4.25
2023-05-04T04:37:31.447Z,4.35
2023-05-04T04:39:58.201Z,4.43
2023-05-04T04:42:24.900Z,4.54
2023-05-04T04:44:52.235Z,4.66
2023-05-04T04:47:18.892Z,4.81
2023-05-04T04:49:45.531Z,4.95
2023-05-04T04:52:12.512Z,5.07
2023-05-04T04:54:39.191Z,5.20
2023-05-04T04:57:06.156Z,5.25
2023-05-04T04:59:32.848Z,5.35
2023-05-04T05:02:00.438Z,5.32
2023-05-04T05:04:27.233Z,5.42
2023-05-04T05:06:54.124Z,5.46
2023-05-04T05:09:21.090Z,5.46
2023-05-04T05:11:47.750Z,5.42
2023-05-04T05:14:14.403Z,5.44
2023-05-04T05:16:41.279Z,5.49
2023-05-04T05:19:07.949Z,5.51
2023-05-04T05:21:34.602Z,5.55
2023-05-04T05:24:01.737Z,5.62
2023-05-04T05:26:28.429Z,5.71
2023-05-04T05:28:55.093Z,5.77
2023-05-04T05:31:22.053Z,5.84
2023-05-04T05:33:48.917Z,5.94
2023-05-04T05:36:15.637Z,6.02
2023-05-04T05:38:42.323Z,6.19
2023-05-04T05:41:09.756Z,6.30
2023-05-04T05:43:38.508Z,6.34
2023-05-04T05:46:06.287Z,6.40
2023-05-04T05:48:33.409Z,6.47
2023-05-04T05:51:00.203Z,6.56
2023-05-04T05:53:26.988Z,6.70
2023-05-04T05:55:53.757Z,6.86
2023-05-04T05:58:20.418Z,6.95
2023-05-04T06:00:48.044Z,7.18
2023-05-04T06:03:14.877Z,7.31
2023-05-04T06:05:41.590Z,7.44
2023-05-04T06:08:08.286Z,7.50
2023-05-04T06:10:35.027Z,7.62
2023-05-04T06:13:01.924Z,7.76
2023-05-04T06:15:28.659Z,7.86
2023-05-04T06:17:55.428Z,7.86
2023-05-04T06:20:22.865Z,7.95
2023-05-04T06:22:49.565Z,7.96
2023-05-04T06:25:16.375Z,8.01
2023-05-04T06:27:43.233Z,8.11
2023-05-04T06:30:10.451Z,8.18
2023-05-04T06:32:37.515Z,8.33
2023-05-04T06:35:05.033Z,8.36
2023-05-04T06:37:32.224Z,8.29
2023-05-04T06:39:58.932Z,8.28
2023-05-04T06:42:30.415Z,8.30
2023-05-04T06:44:58.211Z,8.40
2023-05-04T06:47:25.057Z,8.48
2023-05-04T06:49:51.814Z,8.51
2023-05-04T06:52:18.460Z,8.69
2023-05-04T06:54:45.133Z,8.77
2023-05-04T06:57:11.973Z,8.84
2023-05-04T06:59:38.666Z,8.85
2023-05-04T07:02:05.457Z,8.89
2023-05-04T07:04:32.145Z,8.92
2023-05-04T07:06:58.818Z,8.97
2023-05-04T07:09:26.026Z,8.97
2023-05-04T07:11:52.739Z,9.10
2023-05-04T07:14:19.422Z,9.22
2023-05-04T07:16:46.236Z,9.39
2023-05-04T07:19:13.152Z,9.51
2023-05-04T07:21:39.852Z,9.66
2023-05-04T07:24:07.318Z,9.79
2023-05-04T07:26:34.067Z,9.82
2023-05-04T07:29:00.947Z,9.81
2023-05-04T07:31:30.086Z,9.85
2023-05-04T07:33:57.239Z,9.91
2023-05-04T07:36:26.491Z,9.99
2023-05-04T07:38:54.115Z,10.12
2023-05-04T07:41:20.820Z,10.24
2023-05-04T07:43:47.448Z,10.39
2023-05-04T07:46:13.969Z,10.45
2023-05-04T07:48:40.451Z,10.59
2023-05-04T07:51:13.969Z,10.68
2023-05-04T07:53:40.799Z,10.79
2023-05-04T07:56:08.901Z,10.92
2023-05-04T07:58:35.500Z,11.10
2023-05-04T08:01:02.193Z,11.23
2023-05-04T08:03:30.458Z,11.27
2023-05-04T08:05:56.946Z,11.25
2023-05-04T08:08:23.619Z,11.33
2023-05-04T08:10:50.145Z,11.48
2023-05-04T08:13:16.819Z,11.60
2023-05-04T08:15:43.755Z,11.80
2023-05-04T08:18:10.713Z,11.97
2023-05-04T08:20:37.267Z,12.02
2023-05-04T08:23:04.814Z,12.05
2023-05-04T08:25:31.440Z,12.01
2023-05-04T08:27:58.010Z,12.18
2023-05-04T08:30:24.731Z,12.28
2023-05-04T08:32:52.885Z,12.38
2023-05-04T08:35:19.469Z,12.56
2023-05-04T08:37:45.932Z,12.75
2023-05-04T08:40:12.842Z,13.01
2023-05-04T08:42:40.324Z,13.24
2023-05-04T08:45:07.573Z,13.43
2023-05-04T08:47:34.408Z,13.41
2023-05-04T08:50:01.102Z,13.36
2023-05-04T08:52:28.384Z,13.67
2023-05-04T08:54:56.699Z,13.90
2023-05-04T08:57:24.799Z,13.78
2023-05-04T08:59:53.605Z,13.62
2023-05-04T09:02:22.382Z,13.53
2023-05-04T09:04:49.801Z,13.70
2023-05-04T09:07:18.379Z,13.91
2023-05-04T09:09:45.402Z,14.04
2023-05-04T09:12:12.479Z,14.03
2023-05-04T09:14:39.168Z,14.05
2023-05-04T09:17:14.332Z,14.02
2023-05-04T09:19:43.816Z,14.19
2023-05-04T09:22:17.666Z,14.36
2023-05-04T09:24:47.324Z,14.63
2023-05-04T09:27:16.054Z,14.48
2023-05-04T09:29:42.985Z,14.22
2023-05-04T09:32:15.167Z,14.07
2023-05-04T09:35:10.735Z,14.04
2023-05-04T09:37:47.047Z,14.21
2023-05-04T09:40:14.449Z,14.18
2023-05-04T09:42:41.127Z,14.29
2023-05-04T09:45:09.959Z,14.51
2023-05-04T09:47:39.153Z,14.62
2023-05-04T09:50:20.725Z,14.69
2023-05-04T09:52:49.245Z,14.97
2023-05-04T09:55:20.540Z,15.45
2023-05-04T09:57:48.902Z,15.39
2023-05-04T10:00:17.282Z,15.33
2023-05-04T10:02:45.323Z,15.29
2023-05-04T10:05:16.690Z,15.27
2023-05-04T10:07:46.449Z,15.02
2023-05-04T10:10:14.604Z,15.04
2023-05-04T10:12:41.386Z,14.94
2023-05-04T10:15:10.164Z,15.04
2023-05-04T10:17:53.676Z,15.22
2023-05-04T10:20:39.638Z,15.36
2023-05-04T10:23:36.707Z,15.33
2023-05-04T10:26:25.603Z,15.29
2023-05-04T10:29:07.831Z,15.46
2023-05-04T10:31:42.728Z,15.61
2023-05-04T10:34:10.513Z,15.78
2023-05-04T10:36:38.425Z,15.97
2023-05-04T10:39:17.300Z,15.97
2023-05-04T10:42:04.540Z,15.87
2023-05-04T10:44:36.193Z,15.79
2023-05-04T10:47:05.146Z,15.67
2023-05-04T10:49:32.910Z,15.60
2023-05-04T10:52:12.802Z,15.90
2023-05-04T10:54:41.074Z,15.98
2023-05-04T10:57:13.433Z,15.70
2023-05-04T10:59:41.273Z,15.65
2023-05-04T11:02:08.064Z,15.66
2023-05-04T11:04:36.219Z,15.40
2023-05-04T11:07:06.779Z,15.33
2023-05-04T11:12:21.411Z,15.05
2023-05-04T11:14:48.191Z,15.03
2023-05-04T11:19:50.802Z,15.00
2023-05-04T11:22:18.579Z,15.22
2023-05-04T11:24:46.788Z,15.48
2023-05-04T11:27:23.569Z,15.62
2023-05-04T11:29:57.870Z,15.69
2023-05-04T11:32:38.481Z,16.07
2023-05-04T11:35:08.708Z,16.70
2023-05-04T11:37:42.820Z,17.22
2023-05-04T11:40:22.355Z,17.62
2023-05-04T11:42:52.410Z,17.96
2023-05-04T11:45:23.162Z,17.91
2023-05-04T11:47:51.248Z,17.81
2023-05-04T11:50:20.392Z,17.84
2023-05-04T11:52:48.037Z,17.74
2023-05-04T11:55:28.950Z,17.81
2023-05-04T11:58:00.091Z,17.61
2023-05-04T12:00:43.805Z,17.52
2023-05-04T12:03:15.670Z,17.54
2023-05-04T12:05:52.750Z,17.56
2023-05-04T12:08:30.357Z,17.65
2023-05-04T12:11:10.828Z,17.56
2023-05-04T12:13:37.692Z,17.68
2023-05-04T12:16:14.497Z,18.08
2023-05-04T12:18:42.108Z,18.34
2023-05-04T12:21:18.965Z,18.08
2023-05-04T12:23:47.356Z,17.74
2023-05-04T12:26:17.304Z,17.77
2023-05-04T12:28:45.639Z,17.89
2023-05-04T12:31:12.388Z,17.87
2023-05-04T12:33:39.234Z,17.89
2023-05-04T12:36:06.674Z,17.66
2023-05-04T12:38:33.849Z,17.55
2023-05-04T12:41:04.079Z,17.68
2023-05-04T12:43:31.415Z,17.87
2023-05-04T12:45:58.146Z,17.78
2023-05-04T12:48:29.488Z,17.74
2023-05-04T12:50:56.237Z,17.62
2023-05-04T12:53:25.661Z,17.69
2023-05-04T12:55:52.490Z,17.76
2023-05-04T12:58:19.390Z,17.78
2023-05-04T13:00:46.322Z,17.63
2023-05-04T13:03:13.423Z,17.65
2023-05-04T13:05:40.296Z,17.54
2023-05-04T13:08:07.014Z,17.46
2023-05-04T13:10:33.679Z,17.22
2023-05-04T13:13:00.977Z,17.08
2023-05-04T13:15:28.026Z,17.02
2023-05-04T13:17:54.770Z,16.86
2023-05-04T13:20:22.540Z,16.97
2023-05-04T13:22:50.437Z,17.03
2023-05-04T13:25:17.162Z,17.01
2023-05-04T13:27:44.059Z,17.16
2023-05-04T13:30:11.880Z,17.27
2023-05-04T13:32:38.699Z,17.28
2023-05-04T13:35:06.032Z,17.19
2023-05-04T13:37:33.811Z,17.04
2023-05-04T13:40:01.628Z,16.99
2023-05-04T13:42:28.406Z,17.03
2023-05-04T13:44:55.161Z,16.97
2023-05-04T13:47:23.490Z,16.99
2023-05-04T13:49:50.474Z,16.97
2023-05-04T13:52:17.214Z,16.93
2023-05-04T13:54:44.283Z,16.92
2023-05-04T13:57:11.101Z,16.99
2023-05-04T13:59:37.839Z,17.00
2023-05-04T14:02:04.518Z,17.02
2023-05-04T14:04:31.713Z,16.98
2023-05-04T14:06:59.754Z,16.98
2023-05-04T14:09:26.715Z,17.01
2023-05-04T14:11:53.857Z,17.00
2023-05-04T14:14:21.960Z,16.92
2023-05-04T14:16:48.746Z,16.94
2023-05-04T14:19:15.575Z,16.97
2023-05-04T14:21:42.252Z,17.07
2023-05-04T14:24:08.999Z,17.15
2023-05-04T14:26:35.676Z,17.19
2023-05-04T14:29:02.439Z,17.18
2023-05-04T14:31:29.334Z,17.19
2023-05-04T14:33:57.023Z,17.27
2023-05-04T14:36:23.832Z,17.28
2023-05-04T14:38:50.861Z,17.24
2023-05-04T14:41:17.582Z,17.19
2023-05-04T14:43:44.315Z,17.16
2023-05-04T14:46:12.740Z,17.17
2023-05-04T14:48:39.671Z,17.18
2023-05-04T14:51:06.484Z,17.18
2023-05-04T14:53:36.924Z,17.15
2023-05-04T14:56:06.312Z,17.13
2023-05-04T14:58:33.001Z,17.06
2023-05-04T15:00:59.686Z,16.97
2023-05-04T15:03:26.856Z,16.95
2023-05-04T15:05:53.692Z,16.95
2023-05-04T15:08:20.366Z,16.92
2023-05-04T15:10:47.087Z,16.91
2023-05-04T15:13:15.638Z,16.88
2023-05-04T15:15:42.756Z,16.88
2023-05-04T15:18:09.841Z,16.86
2023-05-04T15:20:38.246Z,16.89
2023-05-04T15:23:10.474Z,16.93
2023-05-04T15:25:41.160Z,16.83
2023-05-04T15:28:10.591Z,16.81
2023-05-04T15:30:41.057Z,16.80
2023-05-04T15:33:08.324Z,16.77
2023-05-04T15:35:36.018Z,16.74
2023-05-04T15:38:03.085Z,16.74
2023-05-04T15:40:29.884Z,16.75
2023-05-04T15:42:58.888Z,16.79
2023-05-04T15:45:25.713Z,16.80
2023-05-04T15:47:54.084Z,16.79
2023-05-04T15:50:21.603Z,16.70
2023-05-04T15:52:49.396Z,16.61
2023-05-04T15:55:24.503Z,16.60
2023-05-04T15:57:53.715Z,16.60
2023-05-04T16:00:21.100Z,16.49
2023-05-04T16:02:48.097Z,16.50
2023-05-04T16:05:14.999Z,16.48
2023-05-04T16:07:41.707Z,16.51
2023-05-04T16:10:09.729Z,16.50
2023-05-04T16:12:36.951Z,16.54
2023-05-04T16:15:04.034Z,16.55
2023-05-04T16:17:34.877Z,16.48
2023-05-04T16:20:03.131Z,16.42
2023-05-04T16:22:30.444Z,16.42
2023-05-04T16:24:57.273Z,16.44
2023-05-04T16:27:26.580Z,16.49
2023-05-04T16:29:53.465Z,16.55
2023-05-04T16:32:20.847Z,16.58
2023-05-04T16:34:47.859Z,16.58
2023-05-04T16:37:15.941Z,16.61
2023-05-04T16:39:42.593Z,16.65
2023-05-04T16:42:09.383Z,16.63
2023-05-04T16:44:36.047Z,16.52
2023-05-04T16:47:02.802Z,16.56
2023-05-04T16:49:29.780Z,16.55
2023-05-04T16:51:57.140Z,16.53
2023-05-04T16:54:24.081Z,16.50
2023-05-04T16:56:51.157Z,16.48
2023-05-04T16:59:17.810Z,16.47
2023-05-04T17:01:45.058Z,16.47
2023-05-04T17:04:13.116Z,16.42
2023-05-04T17:06:39.916Z,16.40
2023-05-04T17:09:06.985Z,16.36
2023-05-04T17:11:34.379Z,16.32
2023-05-04T17:14:01.285Z,16.26
2023-05-04T17:16:28.073Z,16.21
2023-05-04T17:18:55.073Z,16.19
2023-05-04T17:21:21.754Z,16.10
2023-05-04T17:23:48.465Z,16.04
2023-05-04T17:26:15.699Z,15.99
2023-05-04T17:28:42.412Z,15.90
2023-05-04T17:31:12.461Z,15.85
2023-05-04T17:33:39.359Z,15.77
2023-05-04T17:36:07.487Z,15.72
2023-05-04T17:38:34.151Z,15.66
2023-05-04T17:41:00.863Z,15.67
2023-05-04T17:43:27.747Z,15.61
2023-05-04T17:45:55.805Z,15.55
2023-05-04T17:48:23.941Z,15.47
2023-05-04T17:50:51.296Z,15.43
2023-05-04T17:53:18.243Z,15.40
2023-05-04T17:55:44.964Z,15.37
2023-05-04T17:58:11.629Z,15.34
2023-05-04T18:00:38.381Z,15.29
2023-05-04T18:03:05.252Z,15.26
2023-05-04T18:05:32.143Z,15.18
2023-05-04T18:07:59.023Z,15.05
2023-05-04T18:10:26.039Z,14.90
2023-05-04T18:12:52.850Z,14.70
2023-05-04T18:15:19.707Z,14.57
2023-05-04T18:17:49.322Z,14.42
2023-05-04T18:20:16.397Z,14.28
2023-05-04T18:22:43.060Z,14.14
2023-05-04T18:25:10.052Z,14.03
2023-05-04T18:27:36.933Z,13.93
2023-05-04T18:30:05.236Z,13.84
2023-05-04T18:32:32.111Z,13.76
2023-05-04T18:34:58.833Z,13.68
2023-05-04T18:37:25.658Z,13.60
2023-05-04T18:39:52.493Z,13.57
2023-05-04T18:42:19.192Z,13.45
2023-05-04T18:44:45.901Z,13.40
2023-05-04T18:47:12.562Z,13.32
2023-05-04T18:49:39.274Z,13.30
2023-05-04T18:52:05.981Z,13.24
2023-05-04T18:54:33.005Z,13.14
2023-05-04T18:56:59.797Z,13.05
2023-05-04T18:59:26.848Z,13.03
2023-05-04T19:01:53.543Z,13.01
2023-05-04T19:04:20.375Z,12.95
2023-05-04T19:06:47.718Z,12.86
2023-05-04T19:09:14.788Z,12.78
2023-05-04T19:11:41.634Z,12.68
2023-05-04T19:14:08.319Z,12.56
2023-05-04T19:16:35.072Z,12.51
2023-05-04T19:19:02.511Z,12.36
2023-05-04T19:21:29.314Z,12.37
2023-05-04T19:23:56.106Z,12.31
2023-05-04T19:26:23.389Z,12.22
2023-05-04T19:28:50.270Z,12.15
2023-05-04T19:31:16.947Z,12.07
2023-05-04T19:33:48.576Z,11.96
2023-05-04T19:36:16.809Z,11.85
2023-05-04T19:38:43.738Z,11.79
2023-05-04T19:41:10.436Z,11.75
2023-05-04T19:43:38.701Z,11.69
2023-05-04T19:46:05.571Z,11.62
2023-05-04T19:48:32.845Z,11.50
2023-05-04T19:50:59.572Z,11.41
2023-05-04T19:53:26.249Z,11.30
2023-05-04T19:55:52.937Z,11.30
2023-05-04T19:58:19.615Z,11.20
2023-05-04T20:00:46.410Z,11.10
2023-05-04T20:03:12.924Z,11.09
2023-05-04T20:05:39.732Z,10.99
2023-05-04T20:08:06.418Z,10.96
2023-05-04T20:10:32.920Z,10.89
2023-05-04T20:12:59.551Z,10.86
2023-05-04T20:15:26.060Z,10.81
2023-05-04T20:17:52.773Z,10.77
2023-05-04T20:20:21.392Z,10.71
2023-05-04T20:22:51.925Z,10.68
2023-05-04T20:25:19.680Z,10.63
2023-05-04T20:27:48.330Z,10.57
2023-05-04T20:30:15.269Z,10.53
2023-05-04T20:32:43.947Z,10.50
2023-05-04T20:35:10.710Z,10.45
2023-05-04T20:37:37.221Z,10.42
2023-05-04T20:40:04.012Z,10.39
2023-05-04T20:42:30.565Z,10.37
2023-05-04T20:44:57.217Z,10.32
2023-05-04T20:47:23.716Z,10.28
2023-05-04T20:49:50.214Z,10.17
2023-05-04T20:52:16.728Z,10.20
2023-05-04T20:54:43.224Z,10.17
2023-05-04T20:57:09.736Z,10.13
2023-05-04T20:59:36.356Z,10.11
2023-05-04T21:02:02.888Z,10.09
2023-05-04T21:04:29.334Z,10.06
2023-05-04T21:06:57.032Z,10.03
2023-05-04T21:09:23.536Z,9.96
2023-05-04T21:11:50.401Z,9.93
2023-05-04T21:14:16.954Z,9.93
2023-05-04T21:16:43.395Z,9.91
2023-05-04T21:19:09.983Z,9.86
2023-05-04T21:21:40.548Z,9.85
2023-05-04T21:24:13.346Z,9.82
2023-05-04T21:26:41.154Z,9.80
2023-05-04T21:29:12.743Z,9.76
2023-05-04T21:31:40.102Z,9.73
2023-05-04T21:34:06.889Z,9.71
2023-05-04T21:36:33.383Z,9.69
2023-05-04T21:39:00.064Z,9.67
2023-05-04T21:41:26.869Z,9.65
2023-05-04T21:43:53.360Z,9.63
2023-05-04T21:46:19.824Z,9.61
2023-05-04T21:48:46.673Z,9.62
2023-05-04T21:51:13.128Z,9.58
2023-05-04T21:53:42.727Z,9.62
2023-05-04T21:56:09.611Z,9.62
2023-05-04T21:58:39.429Z,9.62
2023-05-04T22:01:07.639Z,9.54
2023-05-04T22:03:34.970Z,9.62
2023-05-04T22:06:01.865Z,9.59
2023-05-04T22:08:29.016Z,9.58
2023-05-04T22:10:58.441Z,9.58
2023-05-04T22:13:25.754Z,9.56
2023-05-04T22:15:53.337Z,9.57
2023-05-04T22:18:20.822Z,9.56
2023-05-04T22:20:47.682Z,9.54
2023-05-04T22:23:14.573Z,9.54
2023-05-04T22:25:41.277Z,9.57
2023-05-04T22:28:07.968Z,9.57
2023-05-04T22:30:34.769Z,9.59
2023-05-04T22:33:01.768Z,9.57
2023-05-04T22:35:28.612Z,9.55
2023-05-04T22:37:55.368Z,9.54
2023-05-04T22:40:22.475Z,9.53
2023-05-04T22:42:49.232Z,9.51
2023-05-04T22:45:17.802Z,9.50
2023-05-04T22:47:45.369Z,9.50
2023-05-04T22:50:12.058Z,9.47
2023-05-04T22:52:39.325Z,9.45
2023-05-04T22:55:08.034Z,9.45
2023-05-04T22:57:35.083Z,9.42
2023-05-04T23:00:02.147Z,9.40
2023-05-04T23:02:29.289Z,9.39
2023-05-04T23:04:56.920Z,9.39
2023-05-04T23:07:23.975Z,9.36
2023-05-04T23:09:50.709Z,9.31
2023-05-04T23:12:17.573Z,9.29
2023-05-04T23:14:44.263Z,9.29
2023-05-04T23:17:10.967Z,9.27
2023-05-04T23:19:37.696Z,9.26
2023-05-04T23:22:04.402Z,9.24
2023-05-04T23:24:30.966Z,9.22
2023-05-04T23:26:58.678Z,9.16
2023-05-04T23:29:25.412Z,9.18
2023-05-04T23:31:53.168Z,9.17
2023-05-04T23:34:19.831Z,9.15
2023-05-04T23:36:46.369Z,9.10
2023-05-04T23:39:12.860Z,9.08
2023-05-04T23:41:39.340Z,9.05
2023-05-04T23:44:05.844Z,9.03
2023-05-04T23:46:32.317Z,9.01
2023-05-04T23:48:58.792Z,8.98
2023-05-04T23:51:25.415Z,8.92
2023-05-04T23:53:51.932Z,8.88
2023-05-04T23:56:18.440Z,8.85
2023-05-04T23:58:44.968Z,8.83
